createdAt,value
2019-05-02T00:00:12.103Z,72.38
2019-05-02T00:00:52.685Z,72.57
2019-05-02T00:01:33.243Z,72.57
2019-05-02T00:02:13.805Z,72.57
2019-05-02T00:02:54.360Z,72.19
2019-05-02T00:03:40.528Z,72.76
2019-05-02T00:04:19.916Z,72.67
2019-05-02T00:04:57.078Z,72.57
2019-05-02T00:05:36.673Z,72.67
2019-05-02T00:06:17.248Z,72.57
2019-05-02T00:06:57.791Z,72.76
2019-05-02T00:07:38.338Z,72.76
2019-05-02T00:08:18.909Z,72.76
2019-05-02T00:08:59.491Z,72.57
2019-05-02T00:09:47.035Z,72.38
2019-05-02T00:10:24.767Z,72.38
2019-05-02T00:11:01.219Z,72.38
2019-05-02T00:11:41.827Z,72.28
2019-05-02T00:12:22.417Z,72.38
2019-05-02T00:13:02.969Z,72.48
2019-05-02T00:13:43.511Z,72.57
2019-05-02T00:14:24.453Z,72.48
2019-05-02T00:15:05.046Z,72.53
2019-05-02T00:15:45.605Z,72.72
2019-05-02T00:16:26.168Z,72.63
2019-05-02T00:17:06.726Z,72.72
2019-05-02T00:17:47.284Z,72.67
2019-05-02T00:18:31.810Z,72.44
2019-05-02T00:19:09.026Z,72.72
2019-05-02T00:19:49.774Z,72.72
2019-05-02T00:20:29.542Z,72.44
2019-05-02T00:21:10.106Z,72.63
2019-05-02T00:21:52.215Z,72.25
2019-05-02T00:22:32.764Z,72.06
2019-05-02T00:23:13.345Z,71.87
2019-05-02T00:23:53.892Z,71.62
2019-05-02T00:24:39.156Z,71.48
2019-05-02T00:25:15.884Z,72.06
2019-05-02T00:25:55.578Z,71.77
2019-05-02T00:26:36.148Z,71.68
2019-05-02T00:27:16.710Z,72.16
2019-05-02T00:27:57.279Z,72.25
2019-05-02T00:28:37.837Z,71.68
2019-05-02T00:29:18.862Z,71.68
2019-05-02T00:30:00.382Z,72.06
2019-05-02T00:30:39.534Z,71.96
2019-05-02T00:31:20.104Z,72.16
2019-05-02T00:32:00.674Z,72.25
2019-05-02T00:32:41.241Z,72.16
2019-05-02T00:33:21.850Z,72.16
2019-05-02T00:34:02.395Z,71.68
2019-05-02T00:34:42.948Z,72.16
2019-05-02T00:35:23.513Z,71.96
2019-05-02T00:36:04.069Z,71.77
2019-05-02T00:36:44.627Z,72.06
2019-05-02T00:37:26.605Z,72.06
2019-05-02T00:38:05.757Z,71.96
2019-05-02T00:38:46.323Z,72.06
2019-05-02T00:39:26.880Z,72.06
2019-05-02T00:40:07.428Z,71.77
2019-05-02T00:40:48.022Z,71.68
2019-05-02T00:41:28.594Z,71.87
2019-05-02T00:42:12.609Z,71.77
2019-05-02T00:42:53.150Z,71.96
2019-05-02T00:43:34.289Z,71.96
2019-05-02T00:44:12.201Z,71.96
2019-05-02T00:44:51.433Z,71.87
2019-05-02T00:45:31.997Z,71.87
2019-05-02T00:46:12.558Z,71.87
2019-05-02T00:46:53.113Z,71.77
2019-05-02T00:47:33.669Z,72.06
2019-05-02T00:48:14.210Z,71.96
2019-05-02T00:48:59.540Z,71.87
2019-05-02T00:49:35.636Z,71.68
2019-05-02T00:50:15.898Z,71.68
2019-05-02T00:50:56.487Z,71.87
2019-05-02T00:51:37.109Z,72.16
2019-05-02T00:52:18.118Z,72.16
2019-05-02T00:52:59.162Z,71.87
2019-05-02T00:53:44.328Z,72.25
2019-05-02T00:54:24.110Z,71.87
2019-05-02T00:55:02.443Z,72.16
2019-05-02T00:55:43.034Z,71.48
2019-05-02T00:56:23.593Z,71.87
2019-05-02T00:57:04.165Z,72.06
2019-05-02T00:57:44.707Z,72.16
2019-05-02T00:58:27.139Z,71.96
2019-05-02T00:59:07.323Z,71.96
2019-05-02T00:59:46.373Z,71.96
2019-05-02T01:00:26.959Z,72.16
2019-05-02T01:01:07.525Z,72.06
2019-05-02T01:01:48.113Z,72.06
2019-05-02T01:02:28.710Z,72.25
2019-05-02T01:03:10.984Z,71.96
2019-05-02T01:03:51.964Z,71.87
2019-05-02T01:04:30.400Z,71.48
2019-05-02T01:05:10.966Z,72.16
2019-05-02T01:05:51.534Z,71.77
2019-05-02T01:06:32.110Z,71.77
2019-05-02T01:07:12.671Z,71.68
2019-05-02T01:07:55.874Z,71.48
2019-05-02T01:08:35.569Z,71.68
2019-05-02T01:09:14.353Z,71.68
2019-05-02T01:09:54.950Z,71.87
2019-05-02T01:10:35.501Z,71.58
2019-05-02T01:11:16.063Z,71.68
2019-05-02T01:11:56.623Z,71.68
2019-05-02T01:12:39.802Z,71.58
2019-05-02T01:13:19.109Z,71.39
2019-05-02T01:13:58.311Z,71.11
2019-05-02T01:14:38.885Z,71.01
2019-05-02T01:15:19.464Z,71.48
2019-05-02T01:16:00.019Z,71.2
2019-05-02T01:16:40.587Z,71.3
2019-05-02T01:17:21.162Z,71.01
2019-05-02T01:18:05.981Z,71.39
2019-05-02T01:18:42.548Z,71.58
2019-05-02T01:19:22.829Z,71.68
2019-05-02T01:20:03.407Z,71.39
2019-05-02T01:20:43.959Z,71.48
2019-05-02T01:21:24.530Z,71.3
2019-05-02T01:22:05.079Z,71.48
2019-05-02T01:22:47.048Z,71.58
2019-05-02T01:23:27.470Z,71.48
2019-05-02T01:24:06.863Z,71.3
2019-05-02T01:24:47.471Z,71.39
2019-05-02T01:25:28.045Z,71.77
2019-05-02T01:26:08.588Z,71.87
2019-05-02T01:26:49.151Z,71.48
2019-05-02T01:27:29.713Z,71.3
2019-05-02T01:28:12.446Z,71.39
2019-05-02T01:28:54.167Z,71.68
2019-05-02T01:29:31.745Z,71.58
2019-05-02T01:30:11.969Z,71.48
2019-05-02T01:30:52.528Z,71.58
2019-05-02T01:31:33.089Z,71.3
2019-05-02T01:34:31.889Z,71.48
2019-05-02T01:35:12.435Z,71.68
2019-05-02T01:35:52.985Z,71.68
2019-05-02T01:36:36.665Z,71.87
2019-05-02T01:37:20.578Z,71.87
2019-05-02T01:37:56.006Z,72.16
2019-05-02T01:38:35.252Z,71.87
2019-05-02T01:39:15.840Z,71.68
2019-05-02T01:39:56.424Z,71.87
2019-05-02T01:40:36.988Z,72.16
2019-05-02T01:41:17.545Z,72.44
2019-05-02T01:41:59.816Z,72.16
2019-05-02T01:42:39.761Z,72.25
2019-05-02T01:43:19.763Z,72.25
2019-05-02T01:44:01.494Z,72.34
2019-05-02T01:44:40.361Z,72.16
2019-05-02T01:45:20.980Z,71.87
2019-05-02T01:46:01.480Z,72.16
2019-05-02T01:46:42.056Z,71.96
2019-05-02T01:47:22.609Z,72.16
2019-05-02T01:48:04.904Z,72.25
2019-05-02T01:48:45.525Z,72.06
2019-05-02T01:49:24.318Z,72.12
2019-05-02T01:50:04.857Z,72.16
2019-05-02T01:50:45.408Z,71.87
2019-05-02T01:51:25.954Z,72.53
2019-05-02T01:52:06.545Z,72.44
2019-05-02T01:52:47.118Z,72.44
2019-05-02T01:53:29.117Z,72.63
2019-05-02T01:54:09.911Z,72.44
2019-05-02T01:54:48.827Z,72.44
2019-05-02T01:55:29.388Z,72.72
2019-05-02T01:56:09.948Z,72.44
2019-05-02T01:56:50.524Z,72.34
2019-05-02T01:57:31.081Z,72.34
2019-05-02T01:58:14.849Z,72.72
2019-05-02T01:58:52.898Z,72.63
2019-05-02T01:59:33.791Z,72.72
2019-05-02T02:00:13.439Z,72.16
2019-05-02T02:00:54.016Z,72.21
2019-05-02T02:01:34.582Z,72.5
2019-05-02T02:02:15.140Z,72.6
2019-05-02T02:02:55.738Z,72.6
2019-05-02T02:03:40.401Z,72.5
2019-05-02T02:04:20.913Z,72.5
2019-05-02T02:04:58.050Z,72.6
2019-05-02T02:05:38.045Z,72.88
2019-05-02T02:06:18.629Z,72.69
2019-05-02T02:06:59.240Z,72.92
2019-05-02T02:07:39.809Z,72.92
2019-05-02T02:08:20.402Z,72.92
2019-05-02T02:09:03.273Z,72.72
2019-05-02T02:09:43.881Z,72.92
2019-05-02T02:10:22.097Z,72.53
2019-05-02T02:11:02.685Z,72.72
2019-05-02T02:11:43.252Z,72.72
2019-05-02T02:12:23.816Z,72.16
2019-05-02T02:13:05.250Z,72.16
2019-05-02T02:13:44.908Z,72.12
2019-05-02T02:14:25.556Z,72.31
2019-05-02T02:15:06.137Z,72.69
2019-05-02T02:15:46.702Z,72.5
2019-05-02T02:16:27.257Z,72.31
2019-05-02T02:17:09.971Z,72.41
2019-05-02T02:17:51.395Z,72.78
2019-05-02T02:18:29.409Z,72.78
2019-05-02T02:19:09.572Z,72.97
2019-05-02T02:19:50.137Z,72.97
2019-05-02T02:20:30.708Z,72.69
2019-05-02T02:21:11.305Z,72.78
2019-05-02T02:21:51.884Z,72.41
2019-05-02T02:22:33.669Z,72.21
2019-05-02T02:23:14.055Z,72.41
2019-05-02T02:23:53.584Z,72.6
2019-05-02T02:24:34.168Z,72.41
2019-05-02T02:25:14.709Z,72.5
2019-05-02T02:25:55.282Z,72.31
2019-05-02T02:26:35.833Z,72.12
2019-05-02T02:27:19.835Z,72.31
2019-05-02T02:27:59.554Z,72.21
2019-05-02T02:28:37.542Z,72.41
2019-05-02T02:29:18.084Z,72.5
2019-05-02T02:29:58.643Z,72.41
2019-05-02T02:30:39.195Z,72.6
2019-05-02T02:31:19.743Z,72.31
2019-05-02T02:32:00.296Z,71.93
2019-05-02T02:35:03.347Z,70.4
2019-05-02T02:35:49.136Z,70.69
2019-05-02T02:36:29.494Z,69.74
2019-05-02T02:37:05.252Z,70.12
2019-05-02T02:37:51.770Z,69.93
2019-05-02T02:38:26.706Z,70.02
2019-05-02T02:39:06.809Z,69.83
2019-05-02T02:39:48.341Z,70.21
2019-05-02T02:40:32.522Z,70.02
2019-05-02T02:41:06.322Z,70.12
2019-05-02T02:41:45.143Z,70.56
2019-05-02T02:42:31.511Z,70.84
2019-05-02T02:43:31.566Z,70.75
2019-05-02T02:43:46.519Z,70.75
2019-05-02T02:44:27.116Z,71.13
2019-05-02T02:45:12.770Z,71.42
2019-05-02T02:45:51.688Z,71.32
2019-05-02T02:46:30.557Z,71.61
2019-05-02T02:47:11.800Z,71.61
2019-05-02T02:47:52.863Z,71.51
2019-05-02T02:48:33.505Z,71.89
2019-05-02T02:49:13.835Z,71.42
2019-05-02T02:49:55.662Z,71.89
2019-05-02T02:50:36.500Z,71.61
2019-05-02T02:51:21.957Z,72.08
2019-05-02T02:51:57.780Z,72.08
2019-05-02T02:52:37.674Z,71.89
2019-05-02T02:53:18.055Z,72.08
2019-05-02T02:54:02.611Z,72.27
2019-05-02T02:54:36.438Z,72.27
2019-05-02T02:55:21.354Z,71.7
2019-05-02T02:56:01.621Z,71.42
2019-05-02T02:56:40.382Z,71.7
2019-05-02T02:57:25.540Z,71.36
2019-05-02T02:58:04.207Z,70.84
2019-05-02T02:58:45.455Z,70.37
2019-05-02T02:59:26.088Z,69.99
2019-05-02T03:00:07.401Z,69.89
2019-05-02T03:00:41.383Z,69.99
2019-05-02T03:01:28.427Z,69.99
2019-05-02T03:02:08.619Z,70.08
2019-05-02T03:02:47.429Z,69.7
2019-05-02T03:03:27.720Z,69.42
2019-05-02T03:04:09.072Z,69.42
2019-05-02T03:04:46.016Z,69.79
2019-05-02T03:05:25.837Z,69.7
2019-05-02T03:06:07.505Z,69.51
2019-05-02T03:06:47.160Z,69.32
2019-05-02T03:07:28.734Z,69.42
2019-05-02T03:08:07.217Z,69.13
2019-05-02T03:08:49.111Z,68.94
2019-05-02T03:09:29.018Z,69.32
2019-05-02T03:10:08.748Z,69.42
2019-05-02T03:10:49.033Z,69.42
2019-05-02T03:11:29.578Z,68.75
2019-05-02T03:12:10.144Z,69.51
2019-05-02T03:12:50.705Z,69.32
2019-05-02T03:13:31.270Z,69.79
2019-05-02T03:14:12.433Z,69.7
2019-05-02T03:14:52.996Z,69.23
2019-05-02T03:15:33.548Z,68.75
2019-05-02T03:16:14.100Z,68.94
2019-05-02T03:16:54.674Z,68.65
2019-05-02T03:17:35.257Z,68.65
2019-05-02T03:18:15.803Z,68.84
2019-05-02T03:18:56.392Z,68.75
2019-05-02T03:19:36.948Z,68.46
2019-05-02T03:20:17.513Z,69.32
2019-05-02T03:20:58.069Z,69.23
2019-05-02T03:21:38.662Z,68.84
2019-05-02T03:22:19.232Z,68.84
2019-05-02T03:22:59.815Z,68.75
2019-05-02T03:23:40.370Z,69.51
2019-05-02T03:24:20.942Z,68.94
2019-05-02T03:25:01.523Z,68.56
2019-05-02T03:25:50.242Z,68.84
2019-05-02T03:26:22.650Z,68.75
2019-05-02T03:27:03.242Z,68.65
2019-05-02T03:27:43.816Z,68.84
2019-05-02T03:28:24.372Z,68.84
2019-05-02T03:29:04.964Z,68.65
2019-05-02T03:29:45.581Z,68.94
2019-05-02T03:30:35.223Z,68.56
2019-05-02T03:31:20.837Z,68.84
2019-05-02T03:31:47.306Z,68.75
2019-05-02T03:32:34.010Z,68.65
2019-05-02T03:33:11.122Z,68.94
2019-05-02T03:33:59.000Z,68.37
2019-05-02T03:34:44.526Z,68.65
2019-05-02T03:35:10.257Z,68.56
2019-05-02T03:35:50.776Z,68.84
2019-05-02T03:36:35.969Z,68.75
2019-05-02T03:37:13.812Z,68.18
2019-05-02T03:37:53.120Z,67.7
2019-05-02T03:38:35.104Z,67.99
2019-05-02T03:39:16.932Z,67.7
2019-05-02T03:40:00.222Z,67.99
2019-05-02T03:40:38.804Z,68.27
2019-05-02T03:41:20.506Z,68.46
2019-05-02T03:42:02.634Z,68.84
2019-05-02T03:42:43.350Z,68.56
2019-05-02T03:43:18.879Z,68.75
2019-05-02T03:46:20.382Z,68.75
2019-05-02T03:47:01.789Z,68.46
2019-05-02T03:47:43.437Z,68.37
2019-05-02T03:48:18.062Z,67.89
2019-05-02T03:49:05.324Z,67.61
2019-05-02T03:49:40.729Z,67.61
2019-05-02T03:50:30.642Z,67.61
2019-05-02T03:50:59.822Z,67.89
2019-05-02T03:51:40.380Z,68.27
2019-05-02T03:52:20.929Z,68.46
2019-05-02T03:53:01.503Z,68.75
2019-05-02T03:53:42.055Z,68.65
2019-05-02T03:54:22.622Z,68.18
2019-05-02T03:55:03.207Z,68.18
2019-05-02T03:55:43.759Z,68.46
2019-05-02T03:56:24.329Z,68.56
2019-05-02T03:57:04.896Z,67.89
2019-05-02T03:57:45.458Z,67.8
2019-05-02T03:58:26.011Z,67.61
2019-05-02T03:59:06.598Z,68.18
2019-05-02T03:59:47.181Z,68.46
2019-05-02T04:00:27.746Z,68.56
2019-05-02T04:01:08.293Z,68.46
2019-05-02T04:01:48.905Z,68.65
2019-05-02T04:02:29.497Z,68.56
2019-05-02T04:03:10.068Z,68.37
2019-05-02T04:03:50.617Z,67.8
2019-05-02T04:04:31.167Z,68.37
2019-05-02T04:05:11.719Z,68.37
2019-05-02T04:05:52.298Z,68.08
2019-05-02T04:06:32.845Z,68.27
2019-05-02T04:07:13.406Z,68.08
2019-05-02T04:07:53.955Z,68.08
2019-05-02T04:08:34.534Z,68.27
2019-05-02T04:09:15.090Z,67.89
2019-05-02T04:09:55.640Z,67.61
2019-05-02T04:10:36.189Z,67.51
2019-05-02T04:11:16.761Z,68.27
2019-05-02T04:11:57.322Z,67.89
2019-05-02T04:12:37.889Z,68.56
2019-05-02T04:13:18.451Z,68.08
2019-05-02T04:13:59.013Z,67.8
2019-05-02T04:14:39.853Z,67.61
2019-05-02T04:15:20.367Z,67.61
2019-05-02T04:16:00.944Z,67.41
2019-05-02T04:16:41.524Z,67.89
2019-05-02T04:17:22.100Z,67.89
2019-05-02T04:18:08.291Z,67.8
2019-05-02T04:18:54.358Z,67.8
2019-05-02T04:19:28.494Z,67.8
2019-05-02T04:20:09.184Z,67.22
2019-05-02T04:20:49.476Z,67.41
2019-05-02T04:21:26.461Z,67.32
2019-05-02T04:22:08.367Z,67.03
2019-05-02T04:22:48.851Z,67.32
2019-05-02T04:23:29.693Z,67.61
2019-05-02T04:24:13.229Z,67.8
2019-05-02T04:24:54.286Z,67.7
2019-05-02T04:25:33.856Z,67.7
2019-05-02T04:26:12.621Z,67.8
2019-05-02T04:26:53.502Z,67.7
2019-05-02T04:27:33.916Z,67.89
2019-05-02T04:28:11.846Z,67.61
2019-05-02T04:28:52.166Z,67.7
2019-05-02T04:29:33.094Z,67.7
2019-05-02T04:30:14.156Z,67.61
2019-05-02T04:30:53.871Z,67.03
2019-05-02T04:31:34.074Z,67.03
2019-05-02T04:32:14.843Z,66.94
2019-05-02T04:32:55.707Z,66.85
2019-05-02T04:33:36.563Z,66.94
2019-05-02T04:34:17.835Z,67.13
2019-05-02T04:34:57.943Z,67.22
2019-05-02T04:35:37.445Z,67.7
2019-05-02T04:36:18.142Z,67.41
2019-05-02T04:37:03.338Z,67.03
2019-05-02T04:37:40.900Z,67.22
2019-05-02T04:38:25.450Z,67.03
2019-05-02T04:39:05.605Z,67.13
2019-05-02T04:39:40.936Z,67.32
2019-05-02T04:40:21.546Z,67.13
2019-05-02T04:41:02.121Z,67.8
2019-05-02T04:41:42.715Z,67.41
2019-05-02T04:42:23.595Z,67.99
2019-05-02T04:43:08.027Z,67.8
2019-05-02T04:43:51.269Z,68.46
2019-05-02T04:44:29.623Z,71.8
2019-05-02T04:45:17.260Z,72.85
2019-05-02T04:45:55.541Z,74.18
2019-05-02T04:46:30.884Z,73.93
2019-05-02T04:47:16.860Z,71.83
2019-05-02T04:47:54.380Z,70.12
2019-05-02T04:48:28.567Z,68.88
2019-05-02T04:49:09.247Z,67.83
2019-05-02T04:49:51.901Z,67.74
2019-05-02T04:50:30.064Z,67.07
2019-05-02T04:51:16.239Z,67.26
2019-05-02T04:52:01.140Z,67.26
2019-05-02T04:52:38.188Z,67.26
2019-05-02T04:53:12.278Z,67.16
2019-05-02T04:53:52.829Z,66.78
2019-05-02T04:54:33.393Z,66.66
2019-05-02T04:55:22.866Z,66.94
2019-05-02T04:56:01.361Z,67.03
2019-05-02T04:56:39.591Z,67.41
2019-05-02T04:57:18.413Z,67.89
2019-05-02T04:57:58.755Z,67.8
2019-05-02T04:58:40.286Z,67.99
2019-05-02T04:59:22.444Z,68.08
2019-05-02T05:00:06.078Z,68.27
2019-05-02T05:00:39.371Z,68.4
2019-05-02T05:01:21.227Z,67.7
2019-05-02T05:02:01.439Z,67.41
2019-05-02T05:02:41.808Z,67.55
2019-05-02T05:03:23.604Z,67.51
2019-05-02T05:04:04.465Z,67.13
2019-05-02T05:04:46.874Z,67.03
2019-05-02T05:05:28.295Z,67.03
2019-05-02T05:06:11.876Z,66.85
2019-05-02T05:06:55.771Z,66.94
2019-05-02T05:07:30.925Z,66.46
2019-05-02T05:08:10.037Z,66.37
2019-05-02T05:08:50.944Z,66.18
2019-05-02T05:09:31.842Z,66.08
2019-05-02T05:10:12.593Z,66.27
2019-05-02T05:10:53.497Z,66.18
2019-05-02T05:11:34.398Z,66.18
2019-05-02T05:12:15.155Z,66.08
2019-05-02T05:12:57.115Z,66.56
2019-05-02T05:13:37.331Z,66.18
2019-05-02T05:14:17.941Z,66.18
2019-05-02T05:15:00.402Z,66.46
2019-05-02T05:15:48.357Z,66.27
2019-05-02T05:16:20.539Z,66.56
2019-05-02T05:17:01.289Z,66.27
2019-05-02T05:17:42.157Z,66.37
2019-05-02T05:18:22.971Z,67.13
2019-05-02T05:19:03.906Z,67.22
2019-05-02T05:19:44.837Z,67.41
2019-05-02T05:20:27.906Z,67.51
2019-05-02T05:21:08.070Z,67.32
2019-05-02T05:21:47.642Z,67.61
2019-05-02T05:22:28.382Z,67.99
2019-05-02T05:23:08.834Z,67.13
2019-05-02T05:23:51.653Z,67.7
2019-05-02T05:24:32.683Z,69.04
2019-05-02T05:25:12.157Z,69.32
2019-05-02T05:25:55.627Z,67.89
2019-05-02T05:26:38.384Z,67.41
2019-05-02T05:27:18.746Z,66.66
2019-05-02T05:27:58.201Z,66.66
2019-05-02T05:28:40.387Z,66.94
2019-05-02T05:29:19.174Z,67.22
2019-05-02T05:29:59.338Z,67.22
2019-05-02T05:30:45.016Z,67.32
2019-05-02T05:31:23.781Z,67.13
2019-05-02T05:32:05.083Z,67.55
2019-05-02T05:32:39.561Z,67.35
2019-05-02T05:33:20.186Z,66.75
2019-05-02T05:34:00.769Z,67.32
2019-05-02T05:34:41.397Z,67.51
2019-05-02T05:35:21.971Z,67.13
2019-05-02T05:36:02.551Z,66.94
2019-05-02T05:36:43.099Z,66.75
2019-05-02T05:37:23.651Z,66.56
2019-05-02T05:38:04.232Z,67.03
2019-05-02T05:38:44.821Z,67.13
2019-05-02T05:39:25.460Z,67.22
2019-05-02T05:40:08.215Z,67.03
2019-05-02T05:40:47.846Z,66.94
2019-05-02T05:41:27.845Z,67.41
2019-05-02T05:42:08.351Z,67.41
2019-05-02T05:42:48.298Z,67.32
2019-05-02T05:43:28.868Z,67.32
2019-05-02T05:44:09.429Z,67.7
2019-05-02T05:44:49.998Z,67.8
2019-05-02T05:45:30.575Z,67.99
2019-05-02T05:46:13.133Z,67.41
2019-05-02T05:46:51.678Z,67.89
2019-05-02T05:47:32.223Z,68.37
2019-05-02T05:48:13.857Z,68.94
2019-05-02T05:48:53.420Z,68.27
2019-05-02T05:49:33.975Z,68.75
2019-05-02T05:50:14.527Z,68.94
2019-05-02T05:50:55.094Z,68.94
2019-05-02T05:51:37.491Z,69.42
2019-05-02T05:52:18.058Z,69.42
2019-05-02T05:52:59.141Z,69.42
2019-05-02T05:53:37.637Z,69.51
2019-05-02T05:54:18.066Z,69.51
2019-05-02T05:54:58.639Z,69.13
2019-05-02T05:55:39.193Z,69.32
2019-05-02T05:56:19.759Z,68.88
2019-05-02T05:57:00.323Z,68.75
2019-05-02T05:57:40.957Z,69.32
2019-05-02T05:58:21.522Z,68.88
2019-05-02T05:59:02.084Z,68.84
2019-05-02T05:59:42.671Z,68.59
2019-05-02T06:00:23.412Z,68.88
2019-05-02T06:01:06.829Z,68.78
2019-05-02T06:01:44.385Z,68.78
2019-05-02T06:02:24.944Z,68.78
2019-05-02T06:03:11.331Z,68.98
2019-05-02T06:03:47.359Z,68.5
2019-05-02T06:04:31.034Z,68.5
2019-05-02T06:05:07.894Z,68.98
2019-05-02T06:05:47.854Z,68.88
2019-05-02T06:06:28.410Z,68.78
2019-05-02T06:07:08.985Z,68.69
2019-05-02T06:07:49.547Z,68.4
2019-05-02T06:08:30.107Z,68.12
2019-05-02T06:09:13.671Z,68.21
2019-05-02T06:09:51.800Z,68.21
2019-05-02T06:10:32.368Z,68.12
2019-05-02T06:11:14.789Z,67.93
2019-05-02T06:11:55.299Z,68.69
2019-05-02T06:12:35.531Z,68.5
2019-05-02T06:13:14.664Z,68.4
2019-05-02T06:13:55.232Z,68.02
2019-05-02T06:14:35.793Z,68.88
2019-05-02T06:15:16.383Z,68.3
2019-05-02T06:16:02.325Z,68.3
2019-05-02T06:16:37.480Z,68.12
2019-05-02T06:17:18.058Z,67.93
2019-05-02T06:17:59.922Z,68.21
2019-05-02T06:18:41.706Z,68.3
2019-05-02T06:19:19.739Z,68.5
2019-05-02T06:20:00.301Z,68.59
2019-05-02T06:20:40.862Z,68.02
2019-05-02T06:21:21.418Z,68.5
2019-05-02T06:22:01.978Z,68.59
2019-05-02T06:22:42.527Z,68.98
2019-05-02T06:23:23.105Z,68.78
2019-05-02T06:24:03.683Z,68.59
2019-05-02T06:24:46.031Z,68.59
2019-05-02T06:25:33.588Z,68.69
2019-05-02T06:26:07.621Z,68.4
2019-05-02T06:26:49.623Z,68.4
2019-05-02T06:27:30.289Z,68.59
2019-05-02T06:28:07.145Z,68.69
2019-05-02T06:28:47.739Z,68.88
2019-05-02T06:29:28.309Z,68.69
2019-05-02T06:30:08.917Z,68.69
2019-05-02T06:30:49.507Z,68.59
2019-05-02T06:31:30.083Z,68.59
2019-05-02T06:32:13.973Z,67.55
2019-05-02T06:32:54.834Z,68.02
2019-05-02T06:33:32.338Z,67.74
2019-05-02T06:34:12.330Z,67.64
2019-05-02T06:34:52.951Z,67.64
2019-05-02T06:35:33.519Z,67.83
2019-05-02T06:36:14.088Z,68.4
2019-05-02T06:36:54.693Z,68.88
2019-05-02T06:37:35.251Z,68.69
2019-05-02T06:38:15.808Z,68.21
2019-05-02T06:38:57.791Z,68.02
2019-05-02T06:39:36.982Z,68.02
2019-05-02T06:40:17.574Z,67.93
2019-05-02T06:40:58.134Z,68.21
2019-05-02T06:41:38.718Z,68.02
2019-05-02T06:42:19.293Z,68.21
2019-05-02T06:43:04.148Z,68.12
2019-05-02T06:43:41.057Z,68.02
2019-05-02T06:44:23.695Z,68.21
2019-05-02T06:45:01.607Z,68.69
2019-05-02T06:45:42.175Z,68.98
2019-05-02T06:46:27.411Z,69.54
2019-05-02T06:47:04.155Z,69.54
2019-05-02T06:47:43.927Z,69.35
2019-05-02T06:48:24.485Z,68.59
2019-05-02T06:49:05.039Z,68.98
2019-05-02T06:49:45.601Z,68.59
2019-05-02T06:50:26.189Z,68.88
2019-05-02T06:51:10.401Z,68.69
2019-05-02T06:51:50.950Z,69.35
2019-05-02T06:52:32.606Z,69.45
2019-05-02T06:53:09.480Z,70.12
2019-05-02T06:53:49.073Z,72.31
2019-05-02T06:54:29.563Z,73.01
2019-05-02T06:55:10.122Z,73.3
2019-05-02T06:55:50.711Z,72.92
2019-05-02T06:56:31.281Z,71.48
2019-05-02T06:57:11.849Z,70.25
2019-05-02T06:57:56.871Z,69.33
2019-05-02T06:58:37.027Z,69.62
2019-05-02T06:59:18.343Z,69.52
2019-05-02T06:59:54.563Z,70.19
2019-05-02T07:00:37.370Z,69.33
2019-05-02T07:01:16.104Z,68.66
2019-05-02T07:01:57.305Z,69.27
2019-05-02T07:02:36.417Z,69.65
2019-05-02T07:03:17.596Z,68.32
2019-05-02T07:03:58.252Z,66.22
2019-05-02T07:04:38.884Z,65.83
2019-05-02T07:05:19.450Z,65.83
2019-05-02T07:06:02.637Z,66.41
2019-05-02T07:06:50.016Z,65.74
2019-05-02T07:07:24.813Z,64.69
2019-05-02T07:08:06.096Z,64.88
2019-05-02T07:08:42.345Z,64.88
2019-05-02T07:09:22.948Z,65.64
2019-05-02T07:10:03.423Z,66.02
2019-05-02T07:10:45.004Z,65.07
2019-05-02T07:11:24.605Z,64.59
2019-05-02T07:12:05.146Z,64.88
2019-05-02T07:12:46.075Z,65.74
2019-05-02T07:13:26.267Z,65.39
2019-05-02T07:14:13.235Z,64.81
2019-05-02T07:14:47.447Z,64.25
2019-05-02T07:15:28.037Z,64.02
2019-05-02T07:16:10.289Z,63.64
2019-05-02T07:16:49.565Z,64.53
2019-05-02T07:17:31.950Z,64.12
2019-05-02T07:18:12.092Z,63.73
2019-05-02T07:18:50.956Z,64.02
2019-05-02T07:19:31.526Z,63.83
2019-05-02T07:20:12.125Z,64.21
2019-05-02T07:20:52.695Z,64.21
2019-05-02T07:21:33.249Z,64.02
2019-05-02T07:22:13.822Z,64.12
2019-05-02T07:22:54.388Z,64.59
2019-05-02T07:23:34.979Z,64.69
2019-05-02T07:24:15.546Z,64.78
2019-05-02T07:24:56.102Z,65.17
2019-05-02T07:25:39.038Z,65.64
2019-05-02T07:26:20.931Z,66.31
2019-05-02T07:26:58.131Z,66.22
2019-05-02T07:27:39.241Z,66.12
2019-05-02T07:28:18.936Z,65.83
2019-05-02T07:28:59.514Z,65.83
2019-05-02T07:29:40.084Z,66.22
2019-05-02T07:30:20.658Z,65.67
2019-05-02T07:31:01.234Z,65.2
2019-05-02T07:31:42.851Z,64.81
2019-05-02T07:32:24.554Z,64.53
2019-05-02T07:33:02.921Z,64.53
2019-05-02T07:33:43.493Z,64.15
2019-05-02T07:34:24.217Z,64.25
2019-05-02T07:35:04.891Z,64.05
2019-05-02T07:35:45.528Z,64.62
2019-05-02T07:36:26.089Z,64.62
2019-05-02T07:37:08.324Z,64.15
2019-05-02T07:37:48.708Z,64.15
2019-05-02T07:38:27.822Z,64.15
2019-05-02T07:39:08.374Z,64.69
2019-05-02T07:39:48.948Z,64.59
2019-05-02T07:40:29.501Z,64.78
2019-05-02T07:41:10.081Z,65.07
2019-05-02T07:41:50.642Z,65.26
2019-05-02T07:42:31.185Z,65.55
2019-05-02T07:43:13.001Z,65.58
2019-05-02T07:43:56.202Z,65.58
2019-05-02T07:44:34.465Z,64.81
2019-05-02T07:45:13.519Z,64.62
2019-05-02T07:45:54.098Z,64.25
2019-05-02T07:46:34.656Z,64.25
2019-05-02T07:47:15.236Z,64.53
2019-05-02T07:47:55.792Z,63.96
2019-05-02T07:48:36.347Z,64.53
2019-05-02T07:49:16.902Z,64.72
2019-05-02T07:49:57.453Z,64.81
2019-05-02T07:50:41.132Z,64.53
2019-05-02T07:51:21.224Z,64.25
2019-05-02T07:51:59.135Z,64.05
2019-05-02T07:52:41.157Z,64.05
2019-05-02T07:53:20.259Z,64.09
2019-05-02T07:54:00.845Z,63.89
2019-05-02T07:54:41.485Z,63.8
2019-05-02T07:55:22.382Z,63.8
2019-05-02T07:56:02.949Z,63.29
2019-05-02T07:56:43.538Z,63.1
2019-05-02T07:57:25.120Z,63.39
2019-05-02T07:58:06.815Z,63.96
2019-05-02T07:58:47.934Z,64.15
2019-05-02T07:59:25.827Z,64.34
2019-05-02T08:00:06.377Z,64.15
2019-05-02T08:00:46.972Z,64.62
2019-05-02T08:01:27.564Z,64.53
2019-05-02T08:02:08.136Z,64.78
2019-05-02T08:02:48.724Z,65.26
2019-05-02T08:03:33.411Z,65.83
2019-05-02T08:04:12.797Z,66.22
2019-05-02T08:04:50.438Z,66.02
2019-05-02T08:05:31.010Z,65.83
2019-05-02T08:06:11.586Z,66.12
2019-05-02T08:06:52.191Z,66.31
2019-05-02T08:07:34.114Z,66.31
2019-05-02T08:08:13.319Z,66.75
2019-05-02T08:08:53.879Z,67.23
2019-05-02T08:09:34.440Z,67.52
2019-05-02T08:10:16.203Z,67.71
2019-05-02T08:11:01.602Z,68.28
2019-05-02T08:11:37.031Z,68.38
2019-05-02T08:12:16.750Z,68.95
2019-05-02T08:12:57.388Z,68.66
2019-05-02T08:13:37.997Z,68.95
2019-05-02T08:14:18.942Z,68.76
2019-05-02T08:15:00.376Z,68.76
2019-05-02T08:15:40.075Z,68.85
2019-05-02T08:16:22.297Z,69.04
2019-05-02T08:17:05.561Z,68.85
2019-05-02T08:17:41.845Z,69.14
2019-05-02T08:18:25.035Z,69.52
2019-05-02T08:19:05.358Z,69.43
2019-05-02T08:19:43.673Z,69.33
2019-05-02T08:20:24.239Z,69.14
2019-05-02T08:21:04.810Z,70
2019-05-02T08:21:45.405Z,69.62
2019-05-02T08:22:25.977Z,69.62
2019-05-02T08:23:06.549Z,69.81
2019-05-02T08:23:47.118Z,69.81
2019-05-02T08:24:27.684Z,69.33
2019-05-02T08:25:10.321Z,70.19
2019-05-02T08:25:48.959Z,70.09
2019-05-02T08:26:29.526Z,70
2019-05-02T08:27:10.139Z,70
2019-05-02T08:27:50.726Z,70.19
2019-05-02T08:28:31.287Z,70.19
2019-05-02T08:29:11.931Z,70
2019-05-02T08:29:52.528Z,70.47
2019-05-02T08:30:35.237Z,70.28
2019-05-02T08:31:18.751Z,70.28
2019-05-02T08:31:54.267Z,70.76
2019-05-02T08:32:34.871Z,70.47
2019-05-02T08:33:15.465Z,70.67
2019-05-02T08:33:56.041Z,70.86
2019-05-02T08:34:36.603Z,70.86
2019-05-02T08:35:17.172Z,70.28
2019-05-02T08:35:57.740Z,70.47
2019-05-02T08:36:38.343Z,70.38
2019-05-02T08:37:18.907Z,69.9
2019-05-02T08:37:59.546Z,70.19
2019-05-02T08:38:40.136Z,69.9
2019-05-02T08:39:20.719Z,70.47
2019-05-02T08:40:05.287Z,70
2019-05-02T08:40:42.140Z,70.19
2019-05-02T08:41:22.482Z,70.09
2019-05-02T08:42:03.070Z,70.28
2019-05-02T08:42:43.635Z,70.67
2019-05-02T08:43:24.293Z,70.86
2019-05-02T08:44:04.894Z,70.19
2019-05-02T08:44:50.936Z,70
2019-05-02T08:45:26.082Z,70.76
2019-05-02T08:46:09.313Z,70.57
2019-05-02T08:46:51.262Z,70.95
2019-05-02T08:49:00.036Z,71.14
2019-05-02T08:49:42.485Z,70.67
2019-05-02T08:50:21.170Z,70.76
2019-05-02T08:51:01.753Z,70.95
2019-05-02T08:51:42.303Z,70.86
2019-05-02T08:52:22.953Z,71.33
2019-05-02T08:53:03.480Z,71.72